Time;durP1;ratioP1;P1;durP2;ratioP2;P2;SDS_P1;SDS_P2;PMS_P1;PMS_P2;Temp;Humidity;BMP_temperature;BMP_pressure;BME280_temperature;BME280_humidity;BME280_pressure;Samples;Min_cycle;Max_cycle;Signal;HPM_P1;HPM_P2
2022/06/25 00:01:16;;;;;;;2.72;1.20;;;15.30;98.00;;;;;;4954783;28;20122;-70
2022/06/25 00:03:48;;;;;;;1.92;1.08;;;15.30;97.80;;;;;;4959190;28;20024;-70
2022/06/25 00:06:15;;;;;;;2.83;1.33;;;15.10;97.90;;;;;;4944965;28;20020;-70
2022/06/25 00:08:42;;;;;;;2.40;1.10;;;15.00;98.00;;;;;;4956716;28;20370;-69
2022/06/25 00:11:08;;;;;;;3.05;1.20;;;14.80;98.00;;;;;;4983013;28;20021;-70
2022/06/25 00:13:34;;;;;;;2.00;1.10;;;14.80;98.00;;;;;;5016627;28;20060;-69
2022/06/25 00:16:01;;;;;;;4.07;1.17;;;14.60;98.00;;;;;;4969854;28;20039;-69
2022/06/25 00:18:26;;;;;;;3.63;1.30;;;14.50;98.00;;;;;;4943168;28;20042;-70
2022/06/25 00:20:52;;;;;;;3.15;1.38;;;14.50;98.00;;;;;;4946993;28;20023;-69
2022/06/25 00:23:18;;;;;;;3.65;1.35;;;14.40;98.00;;;;;;4951234;28;20453;-69
2022/06/25 00:25:44;;;;;;;2.42;1.10;;;14.50;98.00;;;;;;4962917;28;20038;-69
2022/06/25 00:28:10;;;;;;;2.17;1.05;;;14.50;98.00;;;;;;4956152;28;20023;-69
2022/06/25 00:30:37;;;;;;;4.80;1.27;;;14.40;98.00;;;;;;4950601;28;20109;-69
2022/06/25 00:33:03;;;;;;;2.25;1.13;;;14.40;98.00;;;;;;4962430;28;20106;-69
2022/06/25 00:35:31;;;;;;;3.03;1.20;;;14.30;98.00;;;;;;4960967;28;20035;-69
2022/06/25 00:37:57;;;;;;;2.70;1.17;;;14.30;98.00;;;;;;4957057;28;20446;-69
2022/06/25 00:40:22;;;;;;;2.03;1.30;;;14.30;98.00;;;;;;4956011;28;20026;-69
2022/06/25 00:42:52;;;;;;;2.75;1.20;;;14.20;98.00;;;;;;4954306;28;20039;-69
2022/06/25 00:45:17;;;;;;;3.50;1.40;;;14.20;98.00;;;;;;4948497;28;20385;-69
2022/06/25 00:47:43;;;;;;;2.28;1.10;;;14.20;98.00;;;;;;4953486;28;20104;-69
2022/06/25 00:50:09;;;;;;;1.90;1.20;;;14.20;98.00;;;;;;4938827;28;20034;-69
2022/06/25 00:52:39;;;;;;;2.00;1.20;;;14.30;98.00;;;;;;4936890;29;20089;-69
2022/06/25 00:55:10;;;;;;;2.38;1.15;;;14.20;98.00;;;;;;4949401;28;20031;-69
2022/06/25 00:57:39;;;;;;;1.75;0.90;;;14.20;98.00;;;;;;4955443;28;20034;-69
2022/06/25 01:00:11;;;;;;;2.10;1.20;;;14.20;98.00;;;;;;4956816;28;20050;-69
2022/06/25 01:02:39;;;;;;;1.92;1.17;;;14.20;98.00;;;;;;4951157;28;20648;-69
2022/06/25 01:05:10;;;;;;;3.08;1.17;;;14.40;98.00;;;;;;4953675;28;20059;-69
2022/06/25 01:07:39;;;;;;;3.13;1.10;;;14.50;98.00;;;;;;4961478;28;20023;-69
2022/06/25 01:10:06;;;;;;;3.95;1.30;;;14.60;98.00;;;;;;4956929;28;20084;-69
2022/06/25 01:12:33;;;;;;;3.08;1.00;;;14.50;98.00;;;;;;4963505;28;20047;-69
2022/06/25 01:15:09;;;;;;;3.08;1.20;;;14.50;98.00;;;;;;4945823;28;20058;-69
2022/06/25 01:17:40;;;;;;;4.05;1.23;;;14.40;98.00;;;;;;4952522;29;20070;-69
2022/06/25 01:20:06;;;;;;;1.73;1.10;;;14.30;98.00;;;;;;4955271;28;20474;-69
2022/06/25 01:22:32;;;;;;;2.53;1.10;;;14.30;98.00;;;;;;4942575;28;20027;-69
2022/06/25 01:24:58;;;;;;;2.83;1.17;;;14.50;98.00;;;;;;4949784;28;20041;-69
2022/06/25 01:27:24;;;;;;;2.40;1.40;;;14.40;98.00;;;;;;4946976;29;20036;-70
2022/06/25 01:29:50;;;;;;;2.35;1.38;;;14.20;98.00;;;;;;4947910;28;20023;-69
2022/06/25 01:32:15;;;;;;;5.07;1.58;;;14.10;98.00;;;;;;4968096;28;20035;-69
2022/06/25 01:34:41;;;;;;;2.75;1.20;;;14.10;98.00;;;;;;4951756;28;20039;-69
2022/06/25 01:37:07;;;;;;;2.28;1.00;;;13.90;98.00;;;;;;4942370;28;20066;-69
2022/06/25 01:39:32;;;;;;;2.20;1.10;;;13.80;98.00;;;;;;4945626;28;20031;-69
2022/06/25 01:41:58;;;;;;;1.90;1.15;;;13.70;98.00;;;;;;4952367;28;20037;-69
2022/06/25 01:44:24;;;;;;;2.00;1.00;;;13.60;98.00;;;;;;4951032;28;20066;-69
2022/06/25 01:46:50;;;;;;;2.95;1.20;;;13.60;97.90;;;;;;4967274;28;20041;-69
2022/06/25 01:49:16;;;;;;;4.95;1.20;;;13.50;97.00;;;;;;4955969;28;20031;-69
2022/06/25 01:51:42;;;;;;;2.83;1.10;;;13.40;97.30;;;;;;4947178;28;20105;-68
2022/06/25 01:54:07;;;;;;;4.18;1.25;;;13.40;97.20;;;;;;4943364;28;20035;-69
2022/06/25 01:56:33;;;;;;;3.03;1.20;;;13.40;97.10;;;;;;4953622;28;20039;-69
2022/06/25 01:58:59;;;;;;;2.47;1.05;;;13.30;96.80;;;;;;4953536;28;20066;-69
2022/06/25 02:01:24;;;;;;;4.15;1.20;;;13.30;97.30;;;;;;4947609;28;20031;-69
2022/06/25 02:03:50;;;;;;;3.60;1.40;;;13.50;98.00;;;;;;4949407;28;20355;-69
2022/06/25 02:06:16;;;;;;;4.72;1.27;;;13.60;98.00;;;;;;4963327;28;20446;-69
2022/06/25 02:08:42;;;;;;;1.88;0.98;;;13.90;98.00;;;;;;4963862;28;20035;-69
2022/06/25 02:11:09;;;;;;;2.13;1.33;;;14.00;98.00;;;;;;4955445;28;20028;-69
2022/06/25 02:13:35;;;;;;;2.67;1.10;;;14.00;98.00;;;;;;4939406;28;20118;-69
2022/06/25 02:16:02;;;;;;;3.28;1.20;;;13.90;98.00;;;;;;4947741;28;20443;-69
2022/06/25 02:18:29;;;;;;;4.43;1.00;;;13.80;98.00;;;;;;4937276;28;20059;-68
2022/06/25 02:20:54;;;;;;;2.15;1.10;;;13.70;97.90;;;;;;4964284;28;20059;-70
2022/06/25 02:23:22;;;;;;;3.38;1.30;;;13.50;97.90;;;;;;4942485;28;20504;-69
2022/06/25 02:25:47;;;;;;;4.57;1.20;;;13.40;97.50;;;;;;4950380;28;20050;-69
2022/06/25 02:28:17;;;;;;;3.50;1.20;;;13.40;98.00;;;;;;4967986;28;20035;-69
2022/06/25 02:30:43;;;;;;;2.78;1.52;;;13.50;97.90;;;;;;4960297;28;20023;-69
2022/06/25 02:33:14;;;;;;;1.60;1.00;;;13.60;98.00;;;;;;4948028;28;20111;-69
2022/06/25 02:35:43;;;;;;;2.85;1.35;;;13.70;98.00;;;;;;4955918;28;20063;-68
2022/06/25 02:38:11;;;;;;;2.25;1.10;;;13.60;98.00;;;;;;4954279;29;20089;-68
2022/06/25 02:40:36;;;;;;;1.88;1.10;;;13.50;97.80;;;;;;4967365;28;20055;-68
2022/06/25 02:43:02;;;;;;;3.15;1.38;;;13.40;97.70;;;;;;4954805;29;20082;-68
2022/06/25 02:45:28;;;;;;;2.72;1.70;;;13.20;97.00;;;;;;4943922;28;20030;-71
2022/06/25 02:47:56;;;;;;;1.65;1.00;;;13.20;97.20;;;;;;4956207;28;20031;-70
2022/06/25 02:50:22;;;;;;;3.03;1.25;;;13.10;96.50;;;;;;4956436;28;20058;-70
2022/06/25 02:52:48;;;;;;;3.55;1.20;;;12.80;95.90;;;;;;4964494;28;20035;-69
2022/06/25 02:55:14;;;;;;;5.90;1.75;;;12.60;95.40;;;;;;4952762;28;20102;-69
2022/06/25 03:00:23;;;;;;;3.78;1.63;;;12.30;94.20;;;;;;4955897;28;20077;-69
2022/06/25 03:02:52;;;;;;;3.97;1.60;;;12.30;92.60;;;;;;4954647;28;20031;-69
2022/06/25 03:05:19;;;;;;;3.67;1.75;;;12.30;92.20;;;;;;4955617;28;20035;-68
2022/06/25 03:07:44;;;;;;;3.67;1.70;;;12.30;91.60;;;;;;4952585;28;20031;-69
2022/06/25 03:10:10;;;;;;;3.90;1.88;;;12.40;92.00;;;;;;4954704;28;20027;-69
2022/06/25 03:12:36;;;;;;;4.15;1.52;;;12.30;91.10;;;;;;4956518;28;20506;-70
2022/06/25 03:15:03;;;;;;;4.65;1.90;;;12.20;91.80;;;;;;4955266;28;20031;-69
2022/06/25 03:17:28;;;;;;;3.33;1.85;;;12.10;91.20;;;;;;4966286;28;20027;-70
2022/06/25 03:19:54;;;;;;;3.70;1.80;;;12.00;90.90;;;;;;4945939;29;20023;-70
2022/06/25 03:22:20;;;;;;;5.63;1.85;;;12.00;89.80;;;;;;4949674;28;20411;-69
2022/06/25 03:24:46;;;;;;;4.82;1.40;;;12.00;90.40;;;;;;4960473;28;20077;-69
2022/06/25 03:27:12;;;;;;;5.00;1.70;;;12.00;89.80;;;;;;4938761;28;20430;-70
2022/06/25 03:29:37;;;;;;;3.17;1.70;;;11.90;89.80;;;;;;4950485;28;20136;-69
2022/06/25 03:32:03;;;;;;;4.85;1.73;;;11.80;89.30;;;;;;4954660;28;20136;-69
2022/06/25 03:34:29;;;;;;;4.20;1.77;;;11.80;88.40;;;;;;4961997;28;20104;-69
2022/06/25 03:36:55;;;;;;;4.72;1.88;;;12.00;87.30;;;;;;4967269;28;20330;-69
2022/06/25 03:39:20;;;;;;;3.13;1.58;;;12.10;88.20;;;;;;4946229;28;20063;-68
2022/06/25 03:41:46;;;;;;;3.10;1.63;;;12.10;88.90;;;;;;4937965;28;20034;-69
2022/06/25 03:44:12;;;;;;;4.18;1.70;;;12.20;87.30;;;;;;4956716;28;20039;-69
2022/06/25 03:46:39;;;;;;;3.65;1.50;;;12.40;90.00;;;;;;4957951;28;20076;-69
2022/06/25 03:49:06;;;;;;;4.18;1.60;;;12.30;90.80;;;;;;4960698;28;20366;-69
2022/06/25 03:51:32;;;;;;;3.05;1.60;;;12.40;91.00;;;;;;4952373;28;20048;-68
2022/06/25 03:53:58;;;;;;;5.00;1.60;;;12.40;90.90;;;;;;4963210;28;20038;-69
2022/06/25 03:56:24;;;;;;;4.43;2.08;;;12.40;91.50;;;;;;4940904;28;20114;-69
2022/06/25 03:58:51;;;;;;;4.68;1.80;;;12.30;91.60;;;;;;4946290;29;20130;-69
2022/06/25 04:01:17;;;;;;;3.72;2.10;;;12.30;91.30;;;;;;4954156;28;20036;-69
2022/06/25 04:03:43;;;;;;;4.82;2.30;;;12.30;91.00;;;;;;4954150;28;20035;-69
2022/06/25 04:06:10;;;;;;;4.22;2.00;;;12.20;90.60;;;;;;4965935;28;20092;-69
2022/06/25 04:08:35;;;;;;;4.00;1.85;;;12.10;90.70;;;;;;4950193;28;20031;-70
2022/06/25 04:11:02;;;;;;;3.70;2.03;;;12.20;89.20;;;;;;4955932;28;20027;-69
2022/06/25 04:13:27;;;;;;;2.58;1.60;;;12.30;90.20;;;;;;4961408;28;20043;-69
2022/06/25 04:15:53;;;;;;;3.50;1.80;;;12.20;90.10;;;;;;4966991;28;20084;-69
2022/06/25 04:18:19;;;;;;;3.35;1.70;;;12.20;89.80;;;;;;4967747;28;20313;-69
2022/06/25 04:20:45;;;;;;;8.15;2.30;;;12.20;90.10;;;;;;4956532;28;20071;-70
2022/06/25 04:23:11;;;;;;;4.15;1.80;;;12.10;90.00;;;;;;4952818;28;20327;-70
2022/06/25 04:25:37;;;;;;;3.67;2.00;;;12.00;89.30;;;;;;4974563;28;20034;-69
2022/06/25 04:30:49;;;;;;;4.43;1.95;;;12.10;88.40;;;;;;4964294;28;20030;-69
2022/06/25 04:33:16;;;;;;;4.05;1.95;;;12.20;88.50;;;;;;4954091;28;20613;-69
2022/06/25 04:35:41;;;;;;;6.50;2.50;;;12.20;88.10;;;;;;4965037;28;20089;-69
2022/06/25 04:38:07;;;;;;;4.82;2.13;;;12.20;88.00;;;;;;4949823;28;20102;-69
2022/06/25 04:40:33;;;;;;;4.55;2.10;;;12.20;87.90;;;;;;4951279;28;20412;-69
2022/06/25 04:43:02;;;;;;;3.70;1.77;;;12.20;88.30;;;;;;4955250;28;20038;-69
2022/06/25 04:45:28;;;;;;;4.63;2.13;;;12.20;87.20;;;;;;4951087;28;20442;-69
2022/06/25 04:48:00;;;;;;;5.57;2.25;;;12.30;87.80;;;;;;4952789;28;20110;-69
2022/06/25 04:50:25;;;;;;;4.30;2.08;;;12.20;88.40;;;;;;4962985;28;20027;-69
2022/06/25 04:52:51;;;;;;;4.72;2.38;;;12.30;87.10;;;;;;4972071;28;20064;-69
2022/06/25 04:55:17;;;;;;;4.28;2.50;;;12.40;87.60;;;;;;4966416;28;20058;-69
2022/06/25 04:57:43;;;;;;;3.45;2.10;;;12.40;87.50;;;;;;4952867;28;20019;-69
2022/06/25 05:00:11;;;;;;;5.00;2.30;;;12.50;87.90;;;;;;4953711;29;20081;-70
2022/06/25 05:02:40;;;;;;;7.05;2.40;;;12.50;88.00;;;;;;4953832;29;20411;-69
2022/06/25 05:05:06;;;;;;;4.38;2.00;;;12.60;88.10;;;;;;4953542;28;20099;-69
2022/06/25 05:07:32;;;;;;;4.93;1.80;;;12.70;88.00;;;;;;4956287;28;20035;-69
2022/06/25 05:09:58;;;;;;;5.28;2.47;;;12.90;88.80;;;;;;4954678;28;20335;-69
2022/06/25 05:15:08;;;;;;;3.38;1.92;;;13.10;90.10;;;;;;4950723;29;20039;-69
2022/06/25 05:17:34;;;;;;;4.15;2.08;;;13.20;90.50;;;;;;4952517;28;20032;-69
2022/06/25 05:20:00;;;;;;;4.13;2.03;;;13.30;90.60;;;;;;4952443;28;20232;-69
2022/06/25 05:22:26;;;;;;;4.40;1.98;;;13.40;91.00;;;;;;4981527;28;20489;-69
2022/06/25 05:24:52;;;;;;;4.03;2.10;;;13.50;91.30;;;;;;4953933;28;20032;-69
2022/06/25 05:27:18;;;;;;;3.30;1.70;;;13.60;91.60;;;;;;4956586;28;20037;-69
2022/06/25 05:29:43;;;;;;;2.78;1.67;;;13.70;92.60;;;;;;4951193;28;20039;-69
2022/06/25 05:32:09;;;;;;;4.35;1.92;;;13.90;93.40;;;;;;4973384;28;20025;-68
2022/06/25 05:34:35;;;;;;;3.53;1.63;;;14.00;93.80;;;;;;4961219;28;20416;-69
2022/06/25 05:37:00;;;;;;;3.80;1.90;;;14.20;94.20;;;;;;4949180;28;20455;-68
2022/06/25 05:39:26;;;;;;;4.00;1.80;;;14.40;95.20;;;;;;4960691;28;20390;-68
2022/06/25 05:41:51;;;;;;;3.28;1.63;;;14.50;95.20;;;;;;4961156;28;20365;-70
2022/06/25 05:44:17;;;;;;;3.40;1.95;;;14.70;95.50;;;;;;4956834;28;20728;-70
2022/06/25 05:46:43;;;;;;;4.82;1.50;;;14.90;96.30;;;;;;4964360;28;20062;-69
2022/06/25 05:49:08;;;;;;;5.05;1.80;;;15.00;96.70;;;;;;4953504;28;20023;-69
2022/06/25 05:51:34;;;;;;;3.28;1.70;;;15.20;97.20;;;;;;4962931;28;20046;-69
2022/06/25 05:53:59;;;;;;;5.32;1.60;;;15.30;97.60;;;;;;4951033;28;20098;-69
2022/06/25 05:56:25;;;;;;;2.00;1.23;;;15.40;97.70;;;;;;4958794;28;20114;-70
2022/06/25 05:58:51;;;;;;;3.78;1.40;;;15.60;97.90;;;;;;4959039;28;20035;-69
2022/06/25 06:01:16;;;;;;;3.50;1.58;;;15.80;98.00;;;;;;4999820;28;20039;-69
2022/06/25 06:03:42;;;;;;;4.20;1.63;;;16.00;98.00;;;;;;4968679;28;20034;-69
2022/06/25 06:06:08;;;;;;;3.05;1.40;;;16.30;98.00;;;;;;4972830;28;20324;-69
2022/06/25 06:08:33;;;;;;;4.07;1.42;;;16.40;98.00;;;;;;4956946;28;20067;-69
2022/06/25 06:10:59;;;;;;;2.47;1.27;;;16.60;98.00;;;;;;4968172;28;20441;-69
2022/06/25 06:13:24;;;;;;;3.35;1.40;;;16.80;98.00;;;;;;4973912;28;20059;-69
2022/06/25 06:15:50;;;;;;;3.15;1.50;;;16.90;97.30;;;;;;4958238;28;20024;-68
2022/06/25 06:18:16;;;;;;;2.83;1.23;;;17.10;97.10;;;;;;4970368;28;20108;-69
2022/06/25 06:20:42;;;;;;;3.97;1.60;;;17.10;97.30;;;;;;4957259;28;20035;-69
2022/06/25 06:23:07;;;;;;;2.38;1.30;;;17.20;97.20;;;;;;4955930;28;20039;-69
2022/06/25 06:25:33;;;;;;;2.90;1.40;;;17.30;96.20;;;;;;4965476;28;20039;-69
2022/06/25 06:28:05;;;;;;;3.10;1.30;;;17.40;95.20;;;;;;4970373;28;20026;-69
2022/06/25 06:30:31;;;;;;;2.00;1.20;;;17.50;94.50;;;;;;4957281;28;20034;-68
2022/06/25 06:32:56;;;;;;;3.22;1.30;;;17.70;94.50;;;;;;4956193;28;20063;-68
2022/06/25 06:35:22;;;;;;;2.53;1.10;;;17.80;93.30;;;;;;4965613;28;20110;-69
2022/06/25 06:37:48;;;;;;;5.43;1.30;;;18.00;93.50;;;;;;4990994;28;20039;-69
2022/06/25 06:40:15;;;;;;;3.90;1.38;;;18.30;93.00;;;;;;4959182;28;20042;-69
2022/06/25 06:42:41;;;;;;;3.38;1.50;;;18.50;91.90;;;;;;4960466;28;20347;-68
2022/06/25 06:45:07;;;;;;;4.20;1.30;;;18.60;91.20;;;;;;4950796;28;20157;-68
2022/06/25 06:47:33;;;;;;;2.17;1.08;;;18.50;91.70;;;;;;4954011;28;20450;-69
2022/06/25 06:49:58;;;;;;;2.45;1.20;;;18.50;92.40;;;;;;4959702;28;20063;-69
2022/06/25 06:52:26;;;;;;;2.72;1.10;;;18.50;91.60;;;;;;4953706;28;20030;-69
2022/06/25 06:54:52;;;;;;;3.10;1.40;;;18.60;90.10;;;;;;4957479;28;20098;-69
2022/06/25 06:57:18;;;;;;;2.95;1.30;;;18.90;89.90;;;;;;4951763;28;20031;-69
2022/06/25 06:59:43;;;;;;;2.50;1.08;;;18.90;87.90;;;;;;4955260;28;20033;-69
2022/06/25 07:02:09;;;;;;;5.13;1.20;;;19.10;89.30;;;;;;4955504;28;20721;-68
2022/06/25 07:04:35;;;;;;;3.20;1.30;;;19.20;89.70;;;;;;4955593;28;20019;-69
2022/06/25 07:07:00;;;;;;;2.60;1.23;;;19.30;88.90;;;;;;4953724;28;20038;-69
2022/06/25 07:09:26;;;;;;;3.35;1.33;;;19.40;88.10;;;;;;4954339;28;20114;-68
2022/06/25 07:11:52;;;;;;;2.90;1.20;;;19.20;89.00;;;;;;4954522;28;20031;-68
2022/06/25 07:14:18;;;;;;;3.78;1.25;;;19.10;88.40;;;;;;4954273;28;20081;-68
2022/06/25 07:16:45;;;;;;;4.53;1.60;;;19.10;88.60;;;;;;4950251;28;20069;-68
2022/06/25 07:19:11;;;;;;;3.08;1.73;;;19.40;89.50;;;;;;4949870;28;20035;-69
2022/06/25 07:21:38;;;;;;;4.90;1.35;;;19.50;88.20;;;;;;4949391;29;20039;-68
2022/06/25 07:24:04;;;;;;;2.95;1.10;;;19.50;87.00;;;;;;4954425;28;20054;-68
2022/06/25 07:26:30;;;;;;;4.40;1.15;;;20.10;86.60;;;;;;4953950;28;20022;-68
2022/06/25 07:28:56;;;;;;;4.07;1.20;;;21.00;85.00;;;;;;4953464;28;20031;-68
2022/06/25 07:31:22;;;;;;;2.67;1.13;;;22.40;82.10;;;;;;4953825;28;20031;-69
2022/06/25 07:33:48;;;;;;;3.70;1.40;;;23.80;75.10;;;;;;4954077;28;20153;-68
2022/06/25 07:36:14;;;;;;;4.13;1.20;;;24.20;73.30;;;;;;4949786;28;20023;-68
2022/06/25 07:38:43;;;;;;;2.55;1.10;;;24.50;72.90;;;;;;4952031;29;20309;-69
2022/06/25 07:41:09;;;;;;;2.95;1.00;;;24.30;73.00;;;;;;4951529;28;20024;-69
2022/06/25 07:43:36;;;;;;;5.15;1.40;;;24.10;74.60;;;;;;4953616;28;20035;-68
2022/06/25 07:46:04;;;;;;;3.15;0.95;;;24.90;71.80;;;;;;4955637;28;20032;-69
2022/06/25 07:48:30;;;;;;;2.90;1.10;;;25.60;70.70;;;;;;4953889;28;20354;-69
2022/06/25 07:53:40;;;;;;;3.72;0.93;;;26.40;69.60;;;;;;4952230;29;20775;-69
2022/06/25 07:56:07;;;;;;;2.75;0.95;;;26.70;67.30;;;;;;4954428;28;20027;-69
2022/06/25 07:58:34;;;;;;;5.82;1.45;;;26.30;68.30;;;;;;4952586;28;20138;-69
2022/06/25 08:00:59;;;;;;;2.95;1.08;;;25.60;70.70;;;;;;4957819;28;20023;-69
2022/06/25 08:03:25;;;;;;;2.08;1.00;;;24.10;73.70;;;;;;4953859;28;20076;-69
2022/06/25 08:05:51;;;;;;;5.47;1.30;;;22.80;77.00;;;;;;4966476;28;20031;-69
2022/06/25 08:08:16;;;;;;;4.97;1.20;;;23.70;75.80;;;;;;4952682;28;20035;-69
2022/06/25 08:10:42;;;;;;;3.58;1.20;;;25.30;72.70;;;;;;4952172;28;20024;-69
2022/06/25 08:13:08;;;;;;;2.92;1.13;;;26.60;69.40;;;;;;4962531;28;20055;-69
2022/06/25 08:15:34;;;;;;;5.65;1.50;;;27.10;68.40;;;;;;4948129;28;20024;-69
2022/06/25 08:17:59;;;;;;;3.67;1.10;;;26.90;68.40;;;;;;4955514;28;20099;-69
2022/06/25 08:20:25;;;;;;;4.38;1.00;;;26.50;69.80;;;;;;4959472;28;20046;-69
2022/06/25 08:22:51;;;;;;;2.72;0.85;;;27.20;68.10;;;;;;4952797;28;20027;-68
2022/06/25 08:25:16;;;;;;;3.80;1.10;;;27.80;67.80;;;;;;4953065;28;20031;-68
2022/06/25 08:27:53;;;;;;;4.20;1.30;;;28.80;65.10;;;;;;4952311;28;20022;-68
2022/06/25 08:30:20;;;;;;;3.05;1.00;;;29.50;63.90;;;;;;4964219;28;20036;-68
2022/06/25 08:32:46;;;;;;;2.17;0.90;;;29.30;63.50;;;;;;4959401;28;20102;-68
2022/06/25 08:35:12;;;;;;;2.30;0.90;;;28.80;66.60;;;;;;4968016;28;20130;-71
2022/06/25 08:37:48;;;;;;;2.85;1.10;;;28.50;64.60;;;;;;4960485;28;20077;-71
2022/06/25 08:40:15;;;;;;;3.90;1.15;;;26.50;68.90;;;;;;4947886;28;20051;-69
2022/06/25 08:42:42;;;;;;;1.77;1.00;;;25.40;71.90;;;;;;4948970;28;20035;-67
2022/06/25 08:45:27;;;;;;;4.43;1.67;;;24.70;73.00;;;;;;4952025;28;20058;-67
2022/06/25 08:47:56;;;;;;;5.32;1.67;;;23.90;75.30;;;;;;4941454;28;20090;-70
2022/06/25 08:50:22;;;;;;;3.28;1.30;;;23.10;78.30;;;;;;4953736;29;20035;-68
2022/06/25 08:52:53;;;;;;;5.45;1.52;;;22.80;79.30;;;;;;4951043;29;20382;-68
2022/06/25 08:55:40;;;;;;;3.13;1.30;;;22.60;80.80;;;;;;4953878;29;20038;-68
2022/06/25 08:58:09;;;;;;;3.25;1.52;;;22.50;81.50;;;;;;4956106;28;20032;-69
2022/06/25 09:00:37;;;;;;;2.63;1.40;;;22.50;80.70;;;;;;4947180;28;20066;-68
2022/06/25 09:03:03;;;;;;;3.85;1.55;;;22.50;79.50;;;;;;4954104;29;20046;-67
2022/06/25 09:05:35;;;;;;;3.03;1.60;;;22.50;78.90;;;;;;4954890;28;20031;-68
2022/06/25 09:08:05;;;;;;;5.03;1.60;;;22.60;80.10;;;;;;4949877;28;20058;-69
2022/06/25 09:10:32;;;;;;;6.60;1.70;;;22.60;80.90;;;;;;4954575;28;20084;-69
2022/06/25 09:13:01;;;;;;;4.00;1.35;;;22.60;79.50;;;;;;4954227;28;20043;-69
2022/06/25 09:15:34;;;;;;;3.83;1.65;;;22.50;80.80;;;;;;4954543;28;20028;-69
2022/06/25 09:18:13;;;;;;;4.47;1.52;;;23.50;79.50;;;;;;4953631;28;20038;-68
2022/06/25 09:21:09;;;;;;;3.78;1.70;;;25.10;75.60;;;;;;4966649;28;20031;-69
2022/06/25 09:24:00;;;;;;;4.03;1.45;;;25.50;73.10;;;;;;4947597;29;20055;-69
2022/06/25 09:26:26;;;;;;;3.17;1.20;;;26.90;71.30;;;;;;4954650;28;20320;-68
2022/06/25 09:28:52;;;;;;;2.75;1.10;;;28.80;68.20;;;;;;4954649;28;20031;-69
2022/06/25 09:31:50;;;;;;;3.30;1.13;;;29.40;63.10;;;;;;4954630;28;20088;-68
2022/06/25 09:34:15;;;;;;;2.53;1.02;;;29.70;63.30;;;;;;4944375;28;20036;-67
2022/06/25 09:36:41;;;;;;;3.97;1.30;;;30.50;62.60;;;;;;4958523;28;20092;-67
2022/06/25 09:39:10;;;;;;;3.97;1.00;;;29.90;62.20;;;;;;4959081;28;20118;-68
2022/06/25 09:41:49;;;;;;;3.72;1.00;;;29.40;64.70;;;;;;4960538;28;20042;-69
2022/06/25 09:44:18;;;;;;;2.58;0.80;;;29.50;60.90;;;;;;4960427;28;20031;-68
2022/06/25 09:46:58;;;;;;;2.53;0.98;;;29.70;63.00;;;;;;4967396;28;20035;-69
2022/06/25 09:49:25;;;;;;;4.05;1.10;;;29.80;60.10;;;;;;4962201;28;20031;-69
2022/06/25 09:52:02;;;;;;;2.63;1.00;;;30.00;61.50;;;;;;4962969;28;20382;-69
2022/06/25 09:54:29;;;;;;;2.22;1.00;;;28.90;62.00;;;;;;4972261;28;20161;-70
2022/06/25 09:56:55;;;;;;;2.17;1.00;;;27.20;64.10;;;;;;4952707;28;20100;-69
2022/06/25 09:59:24;;;;;;;3.83;1.23;;;27.00;66.40;;;;;;4958350;28;20030;-69
2022/06/25 10:01:50;;;;;;;4.45;1.33;;;27.30;63.70;;;;;;4962423;28;20316;-69
2022/06/25 10:04:17;;;;;;;4.57;1.10;;;26.50;66.10;;;;;;4997327;28;20025;-69
2022/06/25 10:06:44;;;;;;;4.82;1.10;;;27.00;65.10;;;;;;4962588;28;20493;-69
2022/06/25 10:09:11;;;;;;;2.28;0.93;;;27.90;66.80;;;;;;4965991;28;20034;-69
2022/06/25 10:11:40;;;;;;;2.53;1.20;;;29.00;67.10;;;;;;5016001;28;20031;-69
2022/06/25 10:14:05;;;;;;;2.30;0.98;;;29.30;63.80;;;;;;4969480;28;20042;-69
2022/06/25 10:16:31;;;;;;;4.57;1.40;;;28.20;64.40;;;;;;4958646;28;20032;-69
2022/06/25 10:19:00;;;;;;;3.92;1.13;;;26.80;65.70;;;;;;4961611;28;20268;-67
2022/06/25 10:21:26;;;;;;;3.00;1.20;;;26.90;67.00;;;;;;4963978;28;20047;-68
2022/06/25 10:24:03;;;;;;;5.05;0.98;;;27.90;66.50;;;;;;4958919;28;20066;-69
2022/06/25 10:26:29;;;;;;;4.80;1.10;;;28.60;65.80;;;;;;4961825;28;20061;-69
2022/06/25 10:28:54;;;;;;;2.00;1.00;;;30.10;62.80;;;;;;4962208;28;20039;-69
2022/06/25 10:31:20;;;;;;;2.10;0.80;;;30.60;61.10;;;;;;4964892;28;20035;-69
2022/06/25 10:33:55;;;;;;;2.22;0.90;;;30.40;59.60;;;;;;4970335;28;20288;-69
2022/06/25 10:36:49;;;;;;;2.95;0.90;;;30.60;59.50;;;;;;4971373;28;21189;-69
2022/06/25 10:39:27;;;;;;;3.05;0.80;;;30.80;58.50;;;;;;5004939;28;20120;-69
2022/06/25 10:45:07;;;;;;;2.58;0.90;;;30.20;59.90;;;;;;4954691;28;20386;-69
2022/06/25 10:47:48;;;;;;;2.55;0.90;;;30.20;60.60;;;;;;4954017;28;20027;-69
2022/06/25 10:50:23;;;;;;;20.45;2.38;;;30.20;59.90;;;;;;4955488;29;20035;-69
2022/06/25 10:53:05;;;;;;;2.67;0.90;;;30.40;59.40;;;;;;4955769;28;20327;-69
2022/06/25 10:55:46;;;;;;;7.13;1.20;;;30.30;57.90;;;;;;4956783;28;20420;-69
2022/06/25 10:58:18;;;;;;;4.22;1.10;;;30.60;58.60;;;;;;4972081;28;20051;-69
2022/06/25 11:00:53;;;;;;;3.95;1.00;;;29.40;60.00;;;;;;4970601;28;20429;-69
2022/06/25 11:03:38;;;;;;;2.58;1.10;;;28.40;61.10;;;;;;4960769;28;20035;-69
2022/06/25 11:06:34;;;;;;;1.88;0.90;;;28.50;60.80;;;;;;4952923;28;20030;-69
2022/06/25 11:09:13;;;;;;;2.58;0.82;;;29.10;59.30;;;;;;4954915;28;20445;-69
2022/06/25 11:11:41;;;;;;;2.33;0.85;;;30.00;62.40;;;;;;4957472;28;20023;-69
2022/06/25 11:14:19;;;;;;;2.85;1.17;;;29.10;58.80;;;;;;4952519;28;20163;-69
2022/06/25 11:16:46;;;;;;;3.55;0.90;;;27.70;61.60;;;;;;4949416;29;20035;-69
2022/06/25 11:19:12;;;;;;;3.35;0.90;;;26.80;64.60;;;;;;4954947;28;20031;-69
2022/06/25 11:21:42;;;;;;;3.33;1.10;;;26.20;66.60;;;;;;4958419;28;20376;-68
2022/06/25 11:24:19;;;;;;;3.70;1.27;;;25.70;66.30;;;;;;4954033;29;20023;-69
2022/06/25 11:29:47;;;;;;;2.30;1.10;;;27.00;64.30;;;;;;4963114;28;20222;-71
2022/06/25 11:32:14;;;;;;;3.22;1.00;;;27.30;65.70;;;;;;4954873;28;20050;-71
2022/06/25 11:34:41;;;;;;;2.63;1.00;;;27.30;66.80;;;;;;4955675;28;20029;-69
2022/06/25 11:37:14;;;;;;;3.97;1.10;;;27.30;63.90;;;;;;4948575;29;20028;-70
2022/06/25 11:39:44;;;;;;;3.88;1.80;;;26.40;66.50;;;;;;4956036;28;20050;-70
2022/06/25 11:42:11;;;;;;;2.10;1.05;;;26.20;67.20;;;;;;4961426;28;20039;-69
2022/06/25 11:44:50;;;;;;;2.85;1.30;;;26.20;67.30;;;;;;4975620;28;20054;-69
2022/06/25 11:47:22;;;;;;;2.75;1.08;;;27.30;66.50;;;;;;4965303;28;20047;-69
2022/06/25 11:49:49;;;;;;;3.20;0.88;;;28.20;63.10;;;;;;4957147;28;20265;-69
2022/06/25 11:52:20;;;;;;;2.33;1.00;;;27.80;64.20;;;;;;4948136;28;20408;-69
2022/06/25 11:54:46;;;;;;;3.38;0.90;;;27.50;64.10;;;;;;4955471;28;20096;-69
2022/06/25 11:57:18;;;;;;;4.05;0.95;;;27.60;63.10;;;;;;4959034;28;20023;-69
2022/06/25 11:59:44;;;;;;;2.20;0.98;;;28.10;63.80;;;;;;4971509;28;20081;-69
2022/06/25 12:02:11;;;;;;;1.58;0.88;;;28.20;59.90;;;;;;4955007;28;20428;-69
2022/06/25 12:04:57;;;;;;;2.38;0.88;;;27.80;62.30;;;;;;4955462;28;20424;-69
2022/06/25 12:07:32;;;;;;;2.92;1.00;;;28.10;61.50;;;;;;4966271;28;20039;-69
2022/06/25 12:10:12;;;;;;;1.70;0.88;;;28.40;61.90;;;;;;4945373;28;20031;-70
2022/06/25 12:12:39;;;;;;;1.55;0.75;;;28.70;61.80;;;;;;4936946;29;20079;-69
2022/06/25 12:15:07;;;;;;;1.38;0.68;;;29.00;61.60;;;;;;4941999;28;20102;-69
2022/06/25 12:17:39;;;;;;;2.50;0.90;;;29.60;60.40;;;;;;4960164;28;20035;-69
2022/06/25 12:20:10;;;;;;;2.90;0.90;;;29.70;62.50;;;;;;4958437;28;20054;-69
2022/06/25 12:22:41;;;;;;;2.13;0.80;;;29.70;61.90;;;;;;4993285;28;20052;-69
2022/06/25 12:25:09;;;;;;;3.15;1.10;;;30.10;59.20;;;;;;4963368;28;20323;-69
2022/06/25 12:27:50;;;;;;;2.30;0.90;;;30.40;60.50;;;;;;4955688;28;20031;-69
2022/06/25 12:30:33;;;;;;;2.40;0.85;;;30.30;58.70;;;;;;4953667;28;20371;-69
2022/06/25 12:33:13;;;;;;;1.98;0.93;;;29.70;58.70;;;;;;4955544;28;20478;-69
2022/06/25 12:35:44;;;;;;;2.00;0.80;;;30.00;55.70;;;;;;4968203;28;20043;-69
2022/06/25 12:38:15;;;;;;;2.78;0.90;;;30.40;55.50;;;;;;5055018;28;20029;-69
2022/06/25 12:40:46;;;;;;;2.53;1.00;;;31.00;54.20;;;;;;4978433;28;20028;-69
2022/06/25 12:43:14;;;;;;;1.63;0.70;;;31.30;54.60;;;;;;4955660;28;20114;-69
2022/06/25 12:45:42;;;;;;;3.03;1.00;;;30.30;58.10;;;;;;4968131;28;20023;-69
2022/06/25 12:48:09;;;;;;;2.78;0.90;;;29.40;59.50;;;;;;4974532;28;20148;-69
2022/06/25 12:50:36;;;;;;;1.98;1.00;;;28.60;60.90;;;;;;4972966;28;20098;-69
2022/06/25 12:53:16;;;;;;;1.88;0.93;;;27.80;61.30;;;;;;4990818;28;20093;-69
2022/06/25 12:55:48;;;;;;;3.03;0.85;;;27.70;63.10;;;;;;4955126;28;20027;-69
2022/06/25 12:58:18;;;;;;;1.48;0.70;;;28.40;63.10;;;;;;4955165;28;20315;-69
2022/06/25 13:00:45;;;;;;;1.42;0.65;;;29.50;58.40;;;;;;5003200;28;20552;-69
2022/06/25 13:03:11;;;;;;;3.78;0.95;;;30.50;54.40;;;;;;5056169;28;20120;-69
2022/06/25 13:05:37;;;;;;;2.42;0.90;;;30.90;56.30;;;;;;5001764;28;20035;-69
2022/06/25 13:08:03;;;;;;;1.27;0.70;;;30.60;55.50;;;;;;4972736;28;20026;-69
2022/06/25 13:10:30;;;;;;;2.58;0.90;;;30.80;58.20;;;;;;4972451;28;20034;-69